sensor_id;sensor_type;location;lat;lon;timestamp;pressure;altitude;pressure_sealevel;temperature
78917;BMP280;68315;48.608;11.436;2023-11-21T00:01:37;96682.94;;;7.08
78917;BMP280;68315;48.608;11.436;2023-11-21T00:04:02;96682.94;;;7.08
78917;BMP280;68315;48.608;11.436;2023-11-21T00:06:27;96686.19;;;7.06
78917;BMP280;68315;48.608;11.436;2023-11-21T00:08:54;96678.00;;;7.06
78917;BMP280;68315;48.608;11.436;2023-11-21T00:11:19;96672.31;;;7.04
78917;BMP280;68315;48.608;11.436;2023-11-21T00:13:45;96675.78;;;7.05
78917;BMP280;68315;48.608;11.436;2023-11-21T00:16:10;96681.97;;;7.05
78917;BMP280;68315;48.608;11.436;2023-11-21T00:18:35;96674.53;;;7.06
78917;BMP280;68315;48.608;11.436;2023-11-21T00:21:01;96673.78;;;7.05
78917;BMP280;68315;48.608;11.436;2023-11-21T00:23:26;96673.78;;;7.05
78917;BMP280;68315;48.608;11.436;2023-11-21T00:25:51;96679.50;;;7.07
78917;BMP280;68315;48.608;11.436;2023-11-21T00:28:16;96672.75;;;7.08
78917;BMP280;68315;48.608;11.436;2023-11-21T00:30:42;96669.28;;;7.08
78917;BMP280;68315;48.608;11.436;2023-11-21T00:33:07;96671.50;;;7.09
78917;BMP280;68315;48.608;11.436;2023-11-21T00:35:32;96675.00;;;7.10
78917;BMP280;68315;48.608;11.436;2023-11-21T00:37:57;96677.19;;;7.12
78917;BMP280;68315;48.608;11.436;2023-11-21T00:40:23;96676.47;;;7.11
78917;BMP280;68315;48.608;11.436;2023-11-21T00:42:49;96672.25;;;7.10
78917;BMP280;68315;48.608;11.436;2023-11-21T00:45:15;96678.22;;;7.08
78917;BMP280;68315;48.608;11.436;2023-11-21T00:47:40;96675.28;;;7.06
78917;BMP280;68315;48.608;11.436;2023-11-21T00:50:05;96681.25;;;7.05
78917;BMP280;68315;48.608;11.436;2023-11-21T00:52:32;96682.72;;;7.06
78917;BMP280;68315;48.608;11.436;2023-11-21T00:54:57;96682.50;;;7.04
78917;BMP280;68315;48.608;11.436;2023-11-21T00:57:24;96673.03;;;7.05
78917;BMP280;68315;48.608;11.436;2023-11-21T00:59:49;96670.88;;;7.03
78917;BMP280;68315;48.608;11.436;2023-11-21T01:02:14;96673.59;;;7.03
78917;BMP280;68315;48.608;11.436;2023-11-21T01:04:40;96666.13;;;7.04
78917;BMP280;68315;48.608;11.436;2023-11-21T01:07:05;96668.13;;;7.03
78917;BMP280;68315;48.608;11.436;2023-11-21T01:09:31;96669.59;;;7.04
78917;BMP280;68315;48.608;11.436;2023-11-21T01:11:56;96664.13;;;7.04
78917;BMP280;68315;48.608;11.436;2023-11-21T01:14:22;96665.59;;;7.05
78917;BMP280;68315;48.608;11.436;2023-11-21T01:16:47;96662.88;;;7.05
78917;BMP280;68315;48.608;11.436;2023-11-21T01:19:13;96663.59;;;7.06
78917;BMP280;68315;48.608;11.436;2023-11-21T01:21:39;96669.81;;;7.06
78917;BMP280;68315;48.608;11.436;2023-11-21T01:24:04;96662.13;;;7.05
78917;BMP280;68315;48.608;11.436;2023-11-21T01:26:32;96663.59;;;7.06
78917;BMP280;68315;48.608;11.436;2023-11-21T01:28:57;96664.34;;;7.06
78917;BMP280;68315;48.608;11.436;2023-11-21T01:31:22;96660.38;;;7.07
78917;BMP280;68315;48.608;11.436;2023-11-21T01:33:48;96662.88;;;7.05
78917;BMP280;68315;48.608;11.436;2023-11-21T01:36:13;96654.47;;;7.03
78917;BMP280;68315;48.608;11.436;2023-11-21T01:38:39;96644.78;;;7.02
78917;BMP280;68315;48.608;11.436;2023-11-21T01:41:04;96656.66;;;7.05
78917;BMP280;68315;48.608;11.436;2023-11-21T01:43:31;96657.66;;;7.07
78917;BMP280;68315;48.608;11.436;2023-11-21T01:45:57;96648.91;;;7.09
78917;BMP280;68315;48.608;11.436;2023-11-21T01:48:24;96642.97;;;7.11
78917;BMP280;68315;48.608;11.436;2023-11-21T01:50:50;96644.41;;;7.12
78917;BMP280;68315;48.608;11.436;2023-11-21T01:53:15;96645.91;;;7.13
78917;BMP280;68315;48.608;11.436;2023-11-21T01:55:41;96651.59;;;7.15
78917;BMP280;68315;48.608;11.436;2023-11-21T01:58:08;96636.66;;;7.16
78917;BMP280;68315;48.608;11.436;2023-11-21T02:00:33;96654.50;;;7.17
78917;BMP280;68315;48.608;11.436;2023-11-21T02:02:59;96654.50;;;7.17
78917;BMP280;68315;48.608;11.436;2023-11-21T02:05:24;96649.03;;;7.17
78917;BMP280;68315;48.608;11.436;2023-11-21T02:07:51;96663.97;;;7.16
78917;BMP280;68315;48.608;11.436;2023-11-21T02:10:17;96659.03;;;7.14
78917;BMP280;68315;48.608;11.436;2023-11-21T02:12:48;96659.03;;;7.14
78917;BMP280;68315;48.608;11.436;2023-11-21T02:15:14;96664.50;;;7.14
78917;BMP280;68315;48.608;11.436;2023-11-21T02:17:48;96657.59;;;7.13
78917;BMP280;68315;48.608;11.436;2023-11-21T02:20:18;96659.56;;;7.13
78917;BMP280;68315;48.608;11.436;2023-11-21T02:22:51;96649.88;;;7.12
78917;BMP280;68315;48.608;11.436;2023-11-21T02:25:31;96655.63;;;7.08
78917;BMP280;68315;48.608;11.436;2023-11-21T02:27:57;96653.44;;;7.06
78917;BMP280;68315;48.608;11.436;2023-11-21T02:30:23;96640.25;;;7.05
78917;BMP280;68315;48.608;11.436;2023-11-21T02:32:50;96644.28;;;7.04
78917;BMP280;68315;48.608;11.436;2023-11-21T02:35:18;96645.00;;;7.04
78917;BMP280;68315;48.608;11.436;2023-11-21T02:37:43;96645.53;;;7.03
78917;BMP280;68315;48.608;11.436;2023-11-21T02:40:09;96652.47;;;7.04
78917;BMP280;68315;48.608;11.436;2023-11-21T02:42:37;96652.28;;;7.02
78917;BMP280;68315;48.608;11.436;2023-11-21T02:45:02;96639.13;;;7.00
78917;BMP280;68315;48.608;11.436;2023-11-21T02:47:28;96646.56;;;7.00
78917;BMP280;68315;48.608;11.436;2023-11-21T02:49:53;96641.84;;;7.00
78917;BMP280;68315;48.608;11.436;2023-11-21T02:52:19;96650.03;;;7.00
78917;BMP280;68315;48.608;11.436;2023-11-21T02:54:44;96647.53;;;7.02
78917;BMP280;68315;48.608;11.436;2023-11-21T02:57:10;96641.53;;;7.04
78917;BMP280;68315;48.608;11.436;2023-11-21T02:59:35;96642.81;;;7.03
78917;BMP280;68315;48.608;11.436;2023-11-21T03:02:00;96646.28;;;7.03
78917;BMP280;68315;48.608;11.436;2023-11-21T03:04:25;96644.28;;;7.04
78917;BMP280;68315;48.608;11.436;2023-11-21T03:06:51;96641.00;;;7.05
78917;BMP280;68315;48.608;11.436;2023-11-21T03:09:16;96632.06;;;7.05
78917;BMP280;68315;48.608;11.436;2023-11-21T03:11:41;96641.75;;;7.06
78917;BMP280;68315;48.608;11.436;2023-11-21T03:14:07;96643.00;;;7.05
78917;BMP280;68315;48.608;11.436;2023-11-21T03:16:32;96644.47;;;7.06
78917;BMP280;68315;48.608;11.436;2023-11-21T03:18:57;96645.22;;;7.06
78917;BMP280;68315;48.608;11.436;2023-11-21T03:21:23;96642.28;;;7.04
78917;BMP280;68315;48.608;11.436;2023-11-21T03:23:49;96636.81;;;7.04
78917;BMP280;68315;48.608;11.436;2023-11-21T03:26:15;96635.34;;;7.03
78917;BMP280;68315;48.608;11.436;2023-11-21T03:28:40;96640.06;;;7.03
78917;BMP280;68315;48.608;11.436;2023-11-21T03:31:06;96641.34;;;7.02
78917;BMP280;68315;48.608;11.436;2023-11-21T03:33:32;96633.44;;;6.98
78917;BMP280;68315;48.608;11.436;2023-11-21T03:35:57;96631.19;;;6.97
78917;BMP280;68315;48.608;11.436;2023-11-21T03:38:25;96632.97;;;6.94
78917;BMP280;68315;48.608;11.436;2023-11-21T03:40:50;96629.28;;;6.92
78917;BMP280;68315;48.608;11.436;2023-11-21T03:43:15;96636.53;;;6.89
78917;BMP280;68315;48.608;11.436;2023-11-21T03:45:41;96632.31;;;6.88
78917;BMP280;68315;48.608;11.436;2023-11-21T03:48:06;96637.06;;;6.88
78917;BMP280;68315;48.608;11.436;2023-11-21T03:50:32;96626.84;;;6.88
78917;BMP280;68315;48.608;11.436;2023-11-21T03:52:57;96625.41;;;6.87
78917;BMP280;68315;48.608;11.436;2023-11-21T03:55:25;96626.16;;;6.88
78917;BMP280;68315;48.608;11.436;2023-11-21T03:57:51;96629.59;;;6.88
78917;BMP280;68315;48.608;11.436;2023-11-21T04:00:17;96631.59;;;6.88
78917;BMP280;68315;48.608;11.436;2023-11-21T04:02:42;96631.88;;;6.84
78917;BMP280;68315;48.608;11.436;2023-11-21T04:05:07;96629.16;;;6.84
78917;BMP280;68315;48.608;11.436;2023-11-21T04:07:33;96635.63;;;6.81
78917;BMP280;68315;48.608;11.436;2023-11-21T04:09:59;96638.66;;;6.78
78917;BMP280;68315;48.608;11.436;2023-11-21T04:12:24;96634.50;;;6.71
78917;BMP280;68315;48.608;11.436;2023-11-21T04:14:49;96634.81;;;6.68
78917;BMP280;68315;48.608;11.436;2023-11-21T04:17:18;96636.88;;;6.62
78917;BMP280;68315;48.608;11.436;2023-11-21T04:19:43;96638.94;;;6.56
78917;BMP280;68315;48.608;11.436;2023-11-21T04:22:08;96636.28;;;6.50
78917;BMP280;68315;48.608;11.436;2023-11-21T04:24:34;96638.78;;;6.48
78917;BMP280;68315;48.608;11.436;2023-11-21T04:26:59;96635.59;;;6.44
78917;BMP280;68315;48.608;11.436;2023-11-21T04:29:24;96647.75;;;6.43
78917;BMP280;68315;48.608;11.436;2023-11-21T04:31:50;96641.88;;;6.39
78917;BMP280;68315;48.608;11.436;2023-11-21T04:34:15;96638.91;;;6.37
78917;BMP280;68315;48.608;11.436;2023-11-21T04:36:40;96643.16;;;6.32
78917;BMP280;68315;48.608;11.436;2023-11-21T04:39:05;96636.50;;;6.28
78917;BMP280;68315;48.608;11.436;2023-11-21T04:41:32;96636.06;;;6.24
78917;BMP280;68315;48.608;11.436;2023-11-21T04:43:57;96640.31;;;6.19
78917;BMP280;68315;48.608;11.436;2023-11-21T04:46:23;96635.13;;;6.16
78917;BMP280;68315;48.608;11.436;2023-11-21T04:48:48;96649.78;;;6.13
78917;BMP280;68315;48.608;11.436;2023-11-21T04:51:14;96647.06;;;6.13
78917;BMP280;68315;48.608;11.436;2023-11-21T04:53:39;96651.56;;;6.10
78917;BMP280;68315;48.608;11.436;2023-11-21T04:56:05;96660.03;;;6.07
78917;BMP280;68315;48.608;11.436;2023-11-21T04:58:30;96653.84;;;6.06
78917;BMP280;68315;48.608;11.436;2023-11-21T05:00:56;96656.59;;;6.06
78917;BMP280;68315;48.608;11.436;2023-11-21T05:03:21;96663.50;;;6.07
78917;BMP280;68315;48.608;11.436;2023-11-21T05:05:46;96662.25;;;6.08
78917;BMP280;68315;48.608;11.436;2023-11-21T05:08:11;96666.44;;;6.09
78917;BMP280;68315;48.608;11.436;2023-11-21T05:10:36;96671.19;;;6.09
78917;BMP280;68315;48.608;11.436;2023-11-21T05:13:04;96670.94;;;6.07
78917;BMP280;68315;48.608;11.436;2023-11-21T05:15:29;96664.03;;;6.06
78917;BMP280;68315;48.608;11.436;2023-11-21T05:17:55;96668.22;;;6.07
78917;BMP280;68315;48.608;11.436;2023-11-21T05:20:25;96669.69;;;6.08
78917;BMP280;68315;48.608;11.436;2023-11-21T05:22:50;96673.91;;;6.09
78917;BMP280;68315;48.608;11.436;2023-11-21T05:25:16;96668.69;;;6.11
78917;BMP280;68315;48.608;11.436;2023-11-21T05:27:44;96662.19;;;6.14
78917;BMP280;68315;48.608;11.436;2023-11-21T05:30:09;96662.94;;;6.14
78917;BMP280;68315;48.608;11.436;2023-11-21T05:32:37;96668.38;;;6.14
78917;BMP280;68315;48.608;11.436;2023-11-21T05:35:02;96675.81;;;6.14
78917;BMP280;68315;48.608;11.436;2023-11-21T05:37:28;96677.28;;;6.15
78917;BMP280;68315;48.608;11.436;2023-11-21T05:39:53;96665.16;;;6.16
78917;BMP280;68315;48.608;11.436;2023-11-21T05:42:21;96661.41;;;6.19
78917;BMP280;68315;48.608;11.436;2023-11-21T05:44:47;96671.81;;;6.20
78917;BMP280;68315;48.608;11.436;2023-11-21T05:47:12;96674.78;;;6.22
78917;BMP280;68315;48.608;11.436;2023-11-21T05:49:38;96665.84;;;6.22
78917;BMP280;68315;48.608;11.436;2023-11-21T05:52:04;96668.56;;;6.22
78917;BMP280;68315;48.608;11.436;2023-11-21T05:54:30;96669.31;;;6.22
78917;BMP280;68315;48.608;11.436;2023-11-21T05:56:55;96672.03;;;6.22
78917;BMP280;68315;48.608;11.436;2023-11-21T05:59:20;96676.75;;;6.22
78917;BMP280;68315;48.608;11.436;2023-11-21T06:01:46;96675.50;;;6.23
78917;BMP280;68315;48.608;11.436;2023-11-21T06:04:11;96674.25;;;6.24
78917;BMP280;68315;48.608;11.436;2023-11-21T06:06:36;96675.75;;;6.25
78917;BMP280;68315;48.608;11.436;2023-11-21T06:09:01;96682.69;;;6.26
78917;BMP280;68315;48.608;11.436;2023-11-21T06:11:27;96681.19;;;6.25
78917;BMP280;68315;48.608;11.436;2023-11-21T06:13:52;96683.94;;;6.25
78917;BMP280;68315;48.608;11.436;2023-11-21T06:16:20;96674.50;;;6.26
78917;BMP280;68315;48.608;11.436;2023-11-21T06:18:46;96683.38;;;6.26
78917;BMP280;68315;48.608;11.436;2023-11-21T06:21:11;96684.88;;;6.27
78917;BMP280;68315;48.608;11.436;2023-11-21T06:23:37;96688.84;;;6.26
78917;BMP280;68315;48.608;11.436;2023-11-21T06:26:02;96690.31;;;6.27
78917;BMP280;68315;48.608;11.436;2023-11-21T06:28:29;96692.53;;;6.29
78917;BMP280;68315;48.608;11.436;2023-11-21T06:30:54;96698.25;;;6.31
78917;BMP280;68315;48.608;11.436;2023-11-21T06:33:20;96696.25;;;6.31
78917;BMP280;68315;48.608;11.436;2023-11-21T06:35:46;96698.97;;;6.31
78917;BMP280;68315;48.608;11.436;2023-11-21T06:38:12;96699.97;;;6.34
78917;BMP280;68315;48.608;11.436;2023-11-21T06:40:37;96702.16;;;6.35
78917;BMP280;68315;48.608;11.436;2023-11-21T06:43:03;96704.63;;;6.39
78917;BMP280;68315;48.608;11.436;2023-11-21T06:45:32;96705.56;;;6.42
78917;BMP280;68315;48.608;11.436;2023-11-21T06:47:57;96704.53;;;6.45
78917;BMP280;68315;48.608;11.436;2023-11-21T06:50:22;96712.47;;;6.48
78917;BMP280;68315;48.608;11.436;2023-11-21T06:52:47;96718.38;;;6.52
78917;BMP280;68315;48.608;11.436;2023-11-21T06:55:13;96716.09;;;6.56
78917;BMP280;68315;48.608;11.436;2023-11-21T06:57:39;96717.28;;;6.61
78917;BMP280;68315;48.608;11.436;2023-11-21T07:00:04;96719.19;;;6.66
78917;BMP280;68315;48.608;11.436;2023-11-21T07:02:31;96727.09;;;6.69
78917;BMP280;68315;48.608;11.436;2023-11-21T07:04:56;96732.78;;;6.71
78917;BMP280;68315;48.608;11.436;2023-11-21T07:07:21;96735.75;;;6.73
78917;BMP280;68315;48.608;11.436;2023-11-21T07:09:47;96736.00;;;6.75
78917;BMP280;68315;48.608;11.436;2023-11-21T07:12:13;96735.72;;;6.79
78917;BMP280;68315;48.608;11.436;2023-11-21T07:14:39;96738.63;;;6.81
78917;BMP280;68315;48.608;11.436;2023-11-21T07:17:06;96743.09;;;6.84
78917;BMP280;68315;48.608;11.436;2023-11-21T07:19:31;96744.78;;;6.87
78917;BMP280;68315;48.608;11.436;2023-11-21T07:21:57;96751.97;;;6.90
78917;BMP280;68315;48.608;11.436;2023-11-21T07:24:22;96749.97;;;6.90
78917;BMP280;68315;48.608;11.436;2023-11-21T07:26:50;96746.69;;;6.92
78917;BMP280;68315;48.608;11.436;2023-11-21T07:29:15;96747.44;;;6.92
78917;BMP280;68315;48.608;11.436;2023-11-21T07:31:40;96757.34;;;6.95
78917;BMP280;68315;48.608;11.436;2023-11-21T07:34:06;96753.88;;;6.95
78917;BMP280;68315;48.608;11.436;2023-11-21T07:36:33;96754.63;;;6.95
78917;BMP280;68315;48.608;11.436;2023-11-21T07:38:58;96755.59;;;6.98
78917;BMP280;68315;48.608;11.436;2023-11-21T07:41:23;96760.53;;;6.99
78917;BMP280;68315;48.608;11.436;2023-11-21T07:43:49;96764.00;;;7.00
78917;BMP280;68315;48.608;11.436;2023-11-21T07:46:14;96765.50;;;7.01
78917;BMP280;68315;48.608;11.436;2023-11-21T07:48:40;96765.19;;;7.04
78917;BMP280;68315;48.608;11.436;2023-11-21T07:51:07;96774.34;;;7.07
78917;BMP280;68315;48.608;11.436;2023-11-21T07:53:33;96769.13;;;7.09
78917;BMP280;68315;48.608;11.436;2023-11-21T07:56:06;96775.31;;;7.09
78917;BMP280;68315;48.608;11.436;2023-11-21T07:58:36;96773.34;;;7.10
78917;BMP280;68315;48.608;11.436;2023-11-21T08:01:02;96763.88;;;7.11
78917;BMP280;68315;48.608;11.436;2023-11-21T08:03:28;96770.81;;;7.12
78917;BMP280;68315;48.608;11.436;2023-11-21T08:05:55;96768.84;;;7.13
78917;BMP280;68315;48.608;11.436;2023-11-21T08:08:21;96779.97;;;7.15
78917;BMP280;68315;48.608;11.436;2023-11-21T08:10:46;96767.56;;;7.14
78917;BMP280;68315;48.608;11.436;2023-11-21T08:13:13;96775.25;;;7.15
78917;BMP280;68315;48.608;11.436;2023-11-21T08:15:39;96776.94;;;7.18
78917;BMP280;68315;48.608;11.436;2023-11-21T08:18:05;96770.97;;;7.20
78917;BMP280;68315;48.608;11.436;2023-11-21T08:20:32;96775.41;;;7.23
78917;BMP280;68315;48.608;11.436;2023-11-21T08:22:58;96774.56;;;7.28
78917;BMP280;68315;48.608;11.436;2023-11-21T08:25:23;96768.63;;;7.29
78917;BMP280;68315;48.608;11.436;2023-11-21T08:27:48;96763.59;;;7.33
78917;BMP280;68315;48.608;11.436;2023-11-21T08:30:17;96773.50;;;7.36
78917;BMP280;68315;48.608;11.436;2023-11-21T08:32:44;96776.13;;;7.42
78917;BMP280;68315;48.608;11.436;2023-11-21T08:35:10;96775.34;;;7.47
78917;BMP280;68315;48.608;11.436;2023-11-21T08:37:36;96778.75;;;7.53
78917;BMP280;68315;48.608;11.436;2023-11-21T08:40:05;96780.44;;;7.56
78917;BMP280;68315;48.608;11.436;2023-11-21T08:42:34;96782.88;;;7.59
78917;BMP280;68315;48.608;11.436;2023-11-21T08:44:59;96781.81;;;7.62
78917;BMP280;68315;48.608;11.436;2023-11-21T08:47:24;96776.28;;;7.68
78917;BMP280;68315;48.608;11.436;2023-11-21T08:49:51;96775.16;;;7.76
78917;BMP280;68315;48.608;11.436;2023-11-21T08:52:18;96780.13;;;7.78
78917;BMP280;68315;48.608;11.436;2023-11-21T08:54:43;96787.81;;;7.79
78917;BMP280;68315;48.608;11.436;2023-11-21T08:57:10;96793.41;;;7.87
78917;BMP280;68315;48.608;11.436;2023-11-21T08:59:35;96785.34;;;7.95
78917;BMP280;68315;48.608;11.436;2023-11-21T09:02:01;96797.91;;;8.03
78917;BMP280;68315;48.608;11.436;2023-11-21T09:04:26;96790.13;;;8.07
78917;BMP280;68315;48.608;11.436;2023-11-21T09:06:52;96800.78;;;8.11
78917;BMP280;68315;48.608;11.436;2023-11-21T09:09:17;96794.78;;;8.12
78917;BMP280;68315;48.608;11.436;2023-11-21T09:11:42;96796.03;;;8.11
78917;BMP280;68315;48.608;11.436;2023-11-21T09:14:09;96785.31;;;8.13
78917;BMP280;68315;48.608;11.436;2023-11-21T09:16:35;96795.41;;;8.18
78917;BMP280;68315;48.608;11.436;2023-11-21T09:19:00;96809.75;;;8.24
78917;BMP280;68315;48.608;11.436;2023-11-21T09:21:25;96810.69;;;8.27
78917;BMP280;68315;48.608;11.436;2023-11-21T09:23:51;96793.97;;;8.30
78917;BMP280;68315;48.608;11.436;2023-11-21T09:26:16;96807.78;;;8.38
78917;BMP280;68315;48.608;11.436;2023-11-21T09:28:44;96811.72;;;8.42
78917;BMP280;68315;48.608;11.436;2023-11-21T09:31:12;96811.28;;;8.51
78917;BMP280;68315;48.608;11.436;2023-11-21T09:33:38;96816.59;;;8.63
78917;BMP280;68315;48.608;11.436;2023-11-21T09:36:04;96804.69;;;8.73
78917;BMP280;68315;48.608;11.436;2023-11-21T09:38:30;96814.50;;;8.82
78917;BMP280;68315;48.608;11.436;2023-11-21T09:40:55;96812.16;;;8.86
78917;BMP280;68315;48.608;11.436;2023-11-21T09:43:23;96813.34;;;8.90
78917;BMP280;68315;48.608;11.436;2023-11-21T09:45:59;96818.50;;;8.94
78917;BMP280;68315;48.608;11.436;2023-11-21T09:48:26;96821.34;;;9.01
78917;BMP280;68315;48.608;11.436;2023-11-21T09:50:54;96819.75;;;9.06
78917;BMP280;68315;48.608;11.436;2023-11-21T09:53:21;96811.09;;;9.15
78917;BMP280;68315;48.608;11.436;2023-11-21T09:55:48;96813.22;;;9.22
78917;BMP280;68315;48.608;11.436;2023-11-21T09:58:14;96808.78;;;9.32
78917;BMP280;68315;48.608;11.436;2023-11-21T10:00:42;96805.34;;;9.52
78917;BMP280;68315;48.608;11.436;2023-11-21T10:03:08;96811.75;;;9.68
78917;BMP280;68315;48.608;11.436;2023-11-21T10:05:34;96805.63;;;9.75
78917;BMP280;68315;48.608;11.436;2023-11-21T10:08:00;96798.94;;;9.83
78917;BMP280;68315;48.608;11.436;2023-11-21T10:10:27;96802.41;;;9.84
78917;BMP280;68315;48.608;11.436;2023-11-21T10:12:55;96818.84;;;9.84
78917;BMP280;68315;48.608;11.436;2023-11-21T10:15:22;96806.75;;;9.79
78917;BMP280;68315;48.608;11.436;2023-11-21T10:17:49;96806.75;;;9.79
78917;BMP280;68315;48.608;11.436;2023-11-21T10:20:15;96811.16;;;9.82
78917;BMP280;68315;48.608;11.436;2023-11-21T10:22:42;96818.44;;;9.80
78917;BMP280;68315;48.608;11.436;2023-11-21T10:25:09;96814.75;;;9.77
78917;BMP280;68315;48.608;11.436;2023-11-21T10:27:35;96810.97;;;9.80
78917;BMP280;68315;48.608;11.436;2023-11-21T10:30:03;96816.66;;;9.82
78917;BMP280;68315;48.608;11.436;2023-11-21T10:32:29;96817.06;;;9.86
78917;BMP280;68315;48.608;11.436;2023-11-21T10:34:59;96808.81;;;9.86
78917;BMP280;68315;48.608;11.436;2023-11-21T10:37:34;96807.34;;;9.85
78917;BMP280;68315;48.608;11.436;2023-11-21T10:39:59;96806.16;;;9.94
78917;BMP280;68315;48.608;11.436;2023-11-21T10:42:25;96806.97;;;10.02
78917;BMP280;68315;48.608;11.436;2023-11-21T10:44:52;96808.53;;;10.10
78917;BMP280;68315;48.608;11.436;2023-11-21T10:47:17;96804.97;;;10.23
78917;BMP280;68315;48.608;11.436;2023-11-21T10:49:44;96815.81;;;10.29
78917;BMP280;68315;48.608;11.436;2023-11-21T10:52:12;96805.22;;;10.33
78917;BMP280;68315;48.608;11.436;2023-11-21T10:54:43;96818.81;;;10.38
78917;BMP280;68315;48.608;11.436;2023-11-21T10:57:09;96814.78;;;10.39
78917;BMP280;68315;48.608;11.436;2023-11-21T10:59:36;96824.50;;;10.40
78917;BMP280;68315;48.608;11.436;2023-11-21T11:02:10;96815.31;;;10.38
78917;BMP280;68315;48.608;11.436;2023-11-21T11:04:38;96806.34;;;10.37
78917;BMP280;68315;48.608;11.436;2023-11-21T11:07:05;96814.19;;;10.33
78917;BMP280;68315;48.608;11.436;2023-11-21T11:09:34;96813.25;;;10.31
78917;BMP280;68315;48.608;11.436;2023-11-21T11:12:02;96808.16;;;10.35
78917;BMP280;68315;48.608;11.436;2023-11-21T11:14:28;96807.88;;;10.46
78917;BMP280;68315;48.608;11.436;2023-11-21T11:16:54;96814.75;;;10.60
78917;BMP280;68315;48.608;11.436;2023-11-21T11:19:20;96798.16;;;10.65
78917;BMP280;68315;48.608;11.436;2023-11-21T11:35:59;96798.34;;;10.67
78917;BMP280;68315;48.608;11.436;2023-11-21T11:38:28;96789.75;;;10.71
78917;BMP280;68315;48.608;11.436;2023-11-21T11:40:55;96801.28;;;10.77
78917;BMP280;68315;48.608;11.436;2023-11-21T11:43:27;96796.22;;;10.81
78917;BMP280;68315;48.608;11.436;2023-11-21T11:45:56;96798.97;;;10.81
78917;BMP280;68315;48.608;11.436;2023-11-21T11:48:22;96796.97;;;10.81
78917;BMP280;68315;48.608;11.436;2023-11-21T11:51:03;96789.03;;;10.78
78917;BMP280;68315;48.608;11.436;2023-11-21T11:53:35;96797.63;;;10.74
78917;BMP280;68315;48.608;11.436;2023-11-21T11:56:29;96796.66;;;10.64
78917;BMP280;68315;48.608;11.436;2023-11-21T11:59:03;96800.81;;;10.58
78917;BMP280;68315;48.608;11.436;2023-11-21T12:01:31;96803.19;;;10.54
78917;BMP280;68315;48.608;11.436;2023-11-21T12:06:51;96811.31;;;10.39
78917;BMP280;68315;48.608;11.436;2023-11-21T12:09:20;96809.25;;;10.32
78917;BMP280;68315;48.608;11.436;2023-11-21T12:11:47;96805.38;;;10.27
78917;BMP280;68315;48.608;11.436;2023-11-21T12:14:13;96799.09;;;10.19
78917;BMP280;68315;48.608;11.436;2023-11-21T12:16:39;96799.72;;;10.12
78917;BMP280;68315;48.608;11.436;2023-11-21T12:19:04;96801.88;;;10.06
78917;BMP280;68315;48.608;11.436;2023-11-21T12:21:30;96798.00;;;10.01
78917;BMP280;68315;48.608;11.436;2023-11-21T12:23:57;96799.06;;;9.98
78917;BMP280;68315;48.608;11.436;2023-11-21T12:26:24;96802.34;;;9.97
78917;BMP280;68315;48.608;11.436;2023-11-21T12:28:55;96799.19;;;9.93
78917;BMP280;68315;48.608;11.436;2023-11-21T12:31:23;96802.06;;;9.87
78917;BMP280;68315;48.608;11.436;2023-11-21T12:33:48;96807.88;;;9.84
78917;BMP280;68315;48.608;11.436;2023-11-21T12:36:14;96811.31;;;9.77
78917;BMP280;68315;48.608;11.436;2023-11-21T12:38:40;96804.66;;;9.72
78917;BMP280;68315;48.608;11.436;2023-11-21T12:41:05;96815.41;;;9.70
78917;BMP280;68315;48.608;11.436;2023-11-21T12:43:31;96823.63;;;9.70
78917;BMP280;68315;48.608;11.436;2023-11-21T12:46:08;96816.28;;;9.65
78917;BMP280;68315;48.608;11.436;2023-11-21T12:48:37;96816.09;;;9.63
78917;BMP280;68315;48.608;11.436;2023-11-21T12:51:04;96815.47;;;9.57
78917;BMP280;68315;48.608;11.436;2023-11-21T12:53:31;96818.53;;;9.54
78917;BMP280;68315;48.608;11.436;2023-11-21T12:56:02;96825.06;;;9.51
78917;BMP280;68315;48.608;11.436;2023-11-21T12:58:28;96825.19;;;9.45
78917;BMP280;68315;48.608;11.436;2023-11-21T13:00:55;96822.38;;;9.38
78917;BMP280;68315;48.608;11.436;2023-11-21T13:03:22;96815.72;;;9.33
78917;BMP280;68315;48.608;11.436;2023-11-21T13:05:51;96822.06;;;9.28
78917;BMP280;68315;48.608;11.436;2023-11-21T13:08:19;96824.59;;;9.26
78917;BMP280;68315;48.608;11.436;2023-11-21T13:10:46;96832.41;;;9.22
78917;BMP280;68315;48.608;11.436;2023-11-21T13:13:14;96827.47;;;9.20
78917;BMP280;68315;48.608;11.436;2023-11-21T13:15:49;96828.50;;;9.17
78917;BMP280;68315;48.608;11.436;2023-11-21T13:18:15;96837.03;;;9.14
78917;BMP280;68315;48.608;11.436;2023-11-21T13:20:41;96837.59;;;9.12
78917;BMP280;68315;48.608;11.436;2023-11-21T13:23:08;96851.06;;;9.10
78917;BMP280;68315;48.608;11.436;2023-11-21T13:25:35;96845.91;;;9.07
78917;BMP280;68315;48.608;11.436;2023-11-21T13:28:02;96857.94;;;9.04
78917;BMP280;68315;48.608;11.436;2023-11-21T13:30:27;96853.50;;;9.01
78917;BMP280;68315;48.608;11.436;2023-11-21T13:32:59;96853.03;;;8.97
78917;BMP280;68315;48.608;11.436;2023-11-21T13:35:28;96862.88;;;8.92
78917;BMP280;68315;48.608;11.436;2023-11-21T13:38:04;96865.69;;;8.87
78917;BMP280;68315;48.608;11.436;2023-11-21T13:40:31;96864.75;;;8.84
78917;BMP280;68315;48.608;11.436;2023-11-21T13:42:56;96864.56;;;8.82
78917;BMP280;68315;48.608;11.436;2023-11-21T13:45:25;96870.03;;;8.82
78917;BMP280;68315;48.608;11.436;2023-11-21T13:47:53;96869.78;;;8.80
78917;BMP280;68315;48.608;11.436;2023-11-21T13:50:24;96875.28;;;8.80
78917;BMP280;68315;48.608;11.436;2023-11-21T13:52:55;96878.00;;;8.80
78917;BMP280;68315;48.608;11.436;2023-11-21T13:55:20;96876.00;;;8.81
78917;BMP280;68315;48.608;11.436;2023-11-21T13:57:49;96874.75;;;8.82
78917;BMP280;68315;48.608;11.436;2023-11-21T14:00:17;96883.28;;;8.78
78917;BMP280;68315;48.608;11.436;2023-11-21T14:03:01;96882.84;;;8.74
78917;BMP280;68315;48.608;11.436;2023-11-21T14:05:30;96884.41;;;8.70
78917;BMP280;68315;48.608;11.436;2023-11-21T14:07:58;96883.69;;;8.69
78917;BMP280;68315;48.608;11.436;2023-11-21T14:10:32;96890.13;;;8.72
78917;BMP280;68315;48.608;11.436;2023-11-21T14:13:09;96883.38;;;8.73
78917;BMP280;68315;48.608;11.436;2023-11-21T14:15:36;96894.34;;;8.73
78917;BMP280;68315;48.608;11.436;2023-11-21T14:18:07;96893.66;;;8.67
78917;BMP280;68315;48.608;11.436;2023-11-21T14:20:35;96889.78;;;8.62